Forside
METAR-TAF:

METAR-TAF

Lufthavne :

Waukegan Regional Airport

Waukegan, Illinois, USA

Breddekreds: 42-25N, længdekreds: 087-52W, højde: 222 m

Aktuelle vejr

Denne rapport blev lavet for 29 minutter siden, kl. 20:55 UTC
Vind 8 kt fra vestnordvest, varierende mellem vestsydvest og nordvest
Temperatur 1°C
Fugtighed 75%
Tryk 1011 hPa
Sigt: 12.9 km
Overskyet i en højde af 1000 ft

METAR: KUGN 262055Z 29008KT 250V310 8SM OVC010 01/M03 A2986 RMK AO2 SLP121 T00061028 56007 $

Tid: 15:24 (21:24 UTC)


TAF: fraværende

Vejrobservationer og prognoser fra mere end 4000 lufthavne (METAR og TAF).

De gule og røde prikker repræsenterer de meteorologiske stationer.

Flyt musen over at se navnet på stationen.

Så klik over at se vejr observationer og prognoser.

At skifte det kort: Klik på de grønne knapper med et sort kors for at zoome ind; på den grønne knap med en bindestreg for at zoome ud; eller på de grønne pile for tilstødende kort.


METAR-TAF: